SE-0020 weather

Bänkås Hoppfält
Sundsvall, Västernorrlands län, Sweden

Public forecast

Using degrees Celsius for public forecast. Weather courtesy of forecast.io.

METAR (pilot weather report)

Closest report is Sundsvall-Härnösand Airport, 8.4 nm (15.5 km) N. Retrieved 2019/08/20 02:20 UTC (17 minutes ago):

ESNN 200220Z AUTO 16005KT 9999 NCD 11/10 Q1006

TAF (pilot weather forecast)

Forecast is more than 12 hours old.

Closest forecast is Sundsvall-Härnösand Airport, 8.4 nm (15.5 km) N. Retrieved 2016/05/29 09:33 UTC (3 years ago):

TAF TAF ESNN 290830Z 2909/3018 07006KT 9999 SCT045 BECMG 2913/2915 14010KT